メインページ
METAR-TAF:

METAR-TAF

空港 :

ハルツーム, スーダン

ハルツーム国際空港

緯度: 15-36N, 経度: 032-33E, 海抜: 382m

現時点の気象観測

当レポートは25分前の20:30(UTC)に作成
北/北西の風 6kt
気温 28°C
湿度 28%
気圧 1013 hPa
視程10km以上
1,500メートル以下は雲なし、積乱雲なし

METAR: HSSS 112030Z 34006KT CAVOK 28/08 Q1013 NOSIG

時間: 23:55 (20:55 UTC)

予報

当レポートは3時間55分前の17:00(UTC)に作成
予報は11日の 18時(UTC)から 12日の 24時(UTC)まで有効
の風 8kt、最大18ktの突風を伴う
視程: 8000m
11日の 18時(UTC)から 11日の 21時(UTC)まで一時的に
視程: 6000m

TAF: HSSS 111700Z 1118/1224 36008G18KT 8000 NSC TEMPO 1118/1121 6000 NSC

4,000以上の空港の気象観測と天気予報(METAR報とTAF報)

利用可能な観測所は地図上に黄色い丸と赤い丸で示す。

丸の上にカーソルを重ねると観測所名を参照できる。

次にクリックすると気象観測と天気予報を参照できる。

マップの切り替え:黒色「×」印の緑ボタンをクリックして拡大、「-」印の緑ボタンをクリックして縮小、緑色の三角印をクリックして隣りの地図に切り替え


METAR-TAF: